createdAt,value
2023-03-19T00:00:32.267Z,78.69
2023-03-19T00:02:58.890Z,78.63
2023-03-19T00:05:25.510Z,79.66
2023-03-19T00:07:51.938Z,82.00
2023-03-19T00:10:18.542Z,83.30
2023-03-19T00:12:44.952Z,83.22
2023-03-19T00:15:14.225Z,82.56
2023-03-19T00:17:42.729Z,79.73
2023-03-19T00:20:11.002Z,79.53
2023-03-19T00:22:37.662Z,78.72
2023-03-19T00:25:04.436Z,79.22
2023-03-19T00:27:31.131Z,78.16
2023-03-19T00:29:57.525Z,78.03
2023-03-19T00:32:23.948Z,78.00
2023-03-19T00:34:50.908Z,77.04
2023-03-19T00:37:17.426Z,77.43
2023-03-19T00:39:43.984Z,78.74
2023-03-19T00:42:10.544Z,78.96
2023-03-19T00:44:36.955Z,78.80
2023-03-19T00:47:03.416Z,78.15
2023-03-19T00:49:29.867Z,77.95
2023-03-19T00:51:56.285Z,77.92
2023-03-19T00:54:22.749Z,77.54
2023-03-19T00:56:49.209Z,77.92
2023-03-19T00:59:15.690Z,78.12
2023-03-19T01:01:42.140Z,77.49
2023-03-19T01:04:08.707Z,78.80
2023-03-19T01:06:35.279Z,78.07
2023-03-19T01:09:01.720Z,78.78
2023-03-19T01:11:28.289Z,78.02
2023-03-19T01:13:54.718Z,77.70
2023-03-19T01:16:21.160Z,77.89
2023-03-19T01:18:47.618Z,77.73
2023-03-19T01:21:14.509Z,77.37
2023-03-19T01:23:40.971Z,77.61
2023-03-19T01:26:08.244Z,78.18
2023-03-19T01:28:34.662Z,78.38
2023-03-19T01:31:02.787Z,79.49
2023-03-19T01:33:29.232Z,79.91
2023-03-19T01:35:55.899Z,79.19
2023-03-19T01:38:22.336Z,78.80
2023-03-19T01:40:49.057Z,78.91
2023-03-19T01:43:24.778Z,78.72
2023-03-19T01:45:56.609Z,78.92
2023-03-19T01:48:37.574Z,79.30
2023-03-19T01:51:07.339Z,80.53
2023-03-19T01:53:36.332Z,80.07
2023-03-19T01:56:28.515Z,80.01
2023-03-19T01:58:58.751Z,80.38
2023-03-19T02:01:27.778Z,80.51
2023-03-19T02:03:54.341Z,80.21
2023-03-19T02:06:22.150Z,79.76
2023-03-19T02:08:49.767Z,79.06
2023-03-19T02:11:16.908Z,78.90
2023-03-19T02:13:43.747Z,78.96
2023-03-19T02:16:10.657Z,79.18
2023-03-19T02:18:37.225Z,79.65
2023-03-19T02:21:08.076Z,80.03
2023-03-19T02:23:47.326Z,80.68
2023-03-19T02:26:23.044Z,80.31
2023-03-19T02:28:52.004Z,81.51
2023-03-19T02:31:20.556Z,81.78
2023-03-19T02:34:27.104Z,80.64
2023-03-19T02:37:05.458Z,80.92
2023-03-19T02:39:38.428Z,80.67
2023-03-19T02:42:05.981Z,80.74
2023-03-19T02:44:32.432Z,81.65
2023-03-19T02:46:59.639Z,80.97
2023-03-19T02:49:26.202Z,80.40
2023-03-19T02:51:52.604Z,81.17
2023-03-19T02:54:19.048Z,83.32
2023-03-19T02:56:46.093Z,84.58
2023-03-19T02:59:13.236Z,84.31
2023-03-19T03:01:39.700Z,84.47
2023-03-19T03:04:06.190Z,83.84
2023-03-19T03:06:32.668Z,83.17
2023-03-19T03:08:59.119Z,83.40
2023-03-19T03:11:25.556Z,83.42
2023-03-19T03:13:51.988Z,83.08
2023-03-19T03:16:18.635Z,83.08
2023-03-19T03:18:45.237Z,82.13
2023-03-19T03:21:11.710Z,82.20
2023-03-19T03:23:38.215Z,82.25
2023-03-19T03:26:04.720Z,82.30
2023-03-19T03:28:31.116Z,81.59
2023-03-19T03:31:02.260Z,81.47
2023-03-19T03:33:29.261Z,81.59
2023-03-19T03:35:56.603Z,80.59
2023-03-19T03:38:23.556Z,81.21
2023-03-19T03:40:53.625Z,80.92
2023-03-19T03:43:21.129Z,81.29
2023-03-19T03:45:48.696Z,81.50
2023-03-19T03:48:16.018Z,81.35
2023-03-19T03:50:42.726Z,81.79
2023-03-19T03:53:10.033Z,81.58
2023-03-19T03:55:36.815Z,81.56
2023-03-19T03:58:03.574Z,81.10
2023-03-19T04:00:30.009Z,81.41
2023-03-19T04:02:56.651Z,80.94
2023-03-19T04:05:23.111Z,81.63
2023-03-19T04:07:49.572Z,80.94
2023-03-19T04:10:15.993Z,82.14
2023-03-19T04:12:42.381Z,82.82
2023-03-19T04:15:11.055Z,83.04
2023-03-19T04:17:38.636Z,83.08
2023-03-19T04:20:05.670Z,82.73
2023-03-19T04:22:32.115Z,82.68
2023-03-19T04:24:58.587Z,82.86
2023-03-19T04:27:25.313Z,82.48
2023-03-19T04:29:51.831Z,81.99
2023-03-19T04:32:18.467Z,81.96
2023-03-19T04:34:44.929Z,82.21
2023-03-19T04:37:11.429Z,83.22
2023-03-19T04:39:37.845Z,82.17
2023-03-19T04:42:04.434Z,82.04
2023-03-19T04:44:32.059Z,82.17
2023-03-19T04:46:58.496Z,83.05
2023-03-19T04:49:25.893Z,82.87
2023-03-19T04:51:52.465Z,82.67
2023-03-19T04:54:18.890Z,82.63
2023-03-19T04:56:45.303Z,82.67
2023-03-19T04:59:11.749Z,82.92
2023-03-19T05:01:38.290Z,84.13
2023-03-19T05:04:05.015Z,85.57
2023-03-19T05:06:32.163Z,86.33
2023-03-19T05:08:58.752Z,85.86
2023-03-19T05:11:25.987Z,85.60
2023-03-19T05:13:52.545Z,86.43
2023-03-19T05:16:18.957Z,87.70
2023-03-19T05:18:45.750Z,88.40
2023-03-19T05:21:13.003Z,88.46
2023-03-19T05:23:39.788Z,88.30
2023-03-19T05:26:06.925Z,88.49
2023-03-19T05:28:33.615Z,88.63
2023-03-19T05:31:00.408Z,87.13
2023-03-19T05:33:26.850Z,88.64
2023-03-19T05:35:53.328Z,87.15
2023-03-19T05:38:19.922Z,88.13
2023-03-19T05:40:46.886Z,86.06
2023-03-19T05:43:13.366Z,86.83
2023-03-19T05:45:40.419Z,86.48
2023-03-19T05:48:06.885Z,85.49
2023-03-19T05:50:34.030Z,85.11
2023-03-19T05:53:00.935Z,85.19
2023-03-19T05:55:27.397Z,85.80
2023-03-19T05:57:53.854Z,84.93
2023-03-19T06:00:21.106Z,84.86
2023-03-19T06:02:47.541Z,86.81
2023-03-19T06:05:14.061Z,85.05
2023-03-19T06:07:40.783Z,86.65
2023-03-19T06:10:07.830Z,85.93
2023-03-19T06:12:34.258Z,86.06
2023-03-19T06:15:00.814Z,88.34
2023-03-19T06:17:27.203Z,87.24
2023-03-19T06:19:53.609Z,86.42
2023-03-19T06:22:20.018Z,86.77
2023-03-19T06:24:46.447Z,86.07
2023-03-19T06:27:12.977Z,86.02
2023-03-19T06:29:39.384Z,85.82
2023-03-19T06:32:05.981Z,86.88
2023-03-19T06:34:32.402Z,87.52
2023-03-19T06:36:58.809Z,87.98
2023-03-19T06:39:25.338Z,87.25
2023-03-19T06:41:51.870Z,87.21
2023-03-19T06:44:18.436Z,86.15
2023-03-19T06:46:45.053Z,87.37
2023-03-19T06:49:11.706Z,87.58
2023-03-19T06:51:38.400Z,87.39
2023-03-19T06:54:04.838Z,86.97
2023-03-19T06:56:31.288Z,87.18
2023-03-19T06:58:57.716Z,86.88
2023-03-19T07:01:24.219Z,87.07
2023-03-19T07:03:50.991Z,88.89
2023-03-19T07:06:17.451Z,88.79
2023-03-19T07:08:46.289Z,88.45
2023-03-19T07:11:13.520Z,89.14
2023-03-19T07:13:40.215Z,90.02
2023-03-19T07:16:07.189Z,88.35
2023-03-19T07:18:33.902Z,88.91
2023-03-19T07:21:00.427Z,89.06
2023-03-19T07:23:26.861Z,89.03
2023-03-19T07:25:53.262Z,88.50
2023-03-19T07:28:19.663Z,89.74
2023-03-19T07:30:46.040Z,89.76
2023-03-19T07:33:12.996Z,88.61
2023-03-19T07:35:39.489Z,87.90
2023-03-19T07:38:05.985Z,89.85
2023-03-19T07:40:32.762Z,89.19
2023-03-19T07:42:59.391Z,90.20
2023-03-19T07:45:25.777Z,90.09
2023-03-19T07:47:52.592Z,89.09
2023-03-19T07:50:19.004Z,90.64
2023-03-19T07:52:47.786Z,89.96
2023-03-19T07:55:14.946Z,89.83
2023-03-19T07:57:41.397Z,90.42
2023-03-19T08:00:08.669Z,89.70
2023-03-19T08:02:35.433Z,89.62
2023-03-19T08:05:04.668Z,90.20
2023-03-19T08:07:31.849Z,88.35
2023-03-19T08:09:58.705Z,88.50
2023-03-19T08:12:25.976Z,89.42
2023-03-19T08:14:52.444Z,89.70
2023-03-19T08:17:19.143Z,89.86
2023-03-19T08:19:46.709Z,89.09
2023-03-19T08:22:13.432Z,90.05
2023-03-19T08:24:40.186Z,89.61
2023-03-19T08:27:07.887Z,89.80
2023-03-19T08:29:34.511Z,88.58
2023-03-19T08:32:01.299Z,87.86
2023-03-19T08:34:27.790Z,87.25
2023-03-19T08:36:54.184Z,87.61
2023-03-19T08:39:20.837Z,88.66
2023-03-19T08:41:47.296Z,89.21
2023-03-19T08:44:14.041Z,90.01
2023-03-19T08:46:40.554Z,90.56
2023-03-19T08:49:07.005Z,89.35
2023-03-19T08:51:33.504Z,88.72
2023-03-19T08:54:00.225Z,90.47
2023-03-19T08:56:26.662Z,90.82
2023-03-19T08:58:53.144Z,90.70
2023-03-19T09:01:19.749Z,89.93
2023-03-19T09:03:46.269Z,88.83
2023-03-19T09:06:14.513Z,89.49
2023-03-19T09:08:42.062Z,88.23
2023-03-19T09:11:10.232Z,89.63
2023-03-19T09:13:37.456Z,88.69
2023-03-19T09:16:04.636Z,89.23
2023-03-19T09:18:31.351Z,87.13
2023-03-19T09:20:57.756Z,87.08
2023-03-19T09:23:24.337Z,87.45
2023-03-19T09:25:51.276Z,88.38
2023-03-19T09:28:17.916Z,88.43
2023-03-19T09:30:48.961Z,89.83
2023-03-19T09:33:17.939Z,89.16
2023-03-19T09:35:49.749Z,89.19
2023-03-19T09:38:16.410Z,89.40
2023-03-19T09:40:46.629Z,89.31
2023-03-19T09:43:34.654Z,90.32
2023-03-19T09:46:06.149Z,89.21
2023-03-19T09:48:43.373Z,89.41
2023-03-19T09:51:19.478Z,89.01
2023-03-19T09:54:08.814Z,88.68
2023-03-19T09:56:35.431Z,89.92
2023-03-19T09:59:03.206Z,89.28
2023-03-19T10:01:37.479Z,89.80
2023-03-19T10:04:33.862Z,89.75
2023-03-19T10:07:29.602Z,88.42
2023-03-19T10:10:21.873Z,88.58
2023-03-19T10:13:20.641Z,88.45
2023-03-19T10:15:47.860Z,88.12
2023-03-19T10:18:21.623Z,87.43
2023-03-19T10:21:01.230Z,87.91
2023-03-19T10:24:12.516Z,86.68
2023-03-19T10:26:39.120Z,86.91
2023-03-19T10:29:11.076Z,86.09
2023-03-19T10:31:58.224Z,86.36
2023-03-19T10:34:33.330Z,86.01
2023-03-19T10:37:20.512Z,86.50
2023-03-19T10:39:49.603Z,86.53
2023-03-19T10:42:25.763Z,85.77
2023-03-19T10:45:42.749Z,86.76
2023-03-19T10:48:17.886Z,85.59
2023-03-19T10:50:54.867Z,85.50
2023-03-19T10:53:28.730Z,85.08
2023-03-19T10:55:59.892Z,85.12
2023-03-19T10:58:28.732Z,84.64
2023-03-19T11:01:12.462Z,84.36
2023-03-19T11:03:48.328Z,83.36
2023-03-19T11:06:31.174Z,83.60
2023-03-19T11:09:10.329Z,83.19
2023-03-19T11:11:50.802Z,84.31
2023-03-19T11:14:25.586Z,84.80
2023-03-19T11:16:52.045Z,84.34
2023-03-19T11:19:26.217Z,84.59
2023-03-19T11:22:02.732Z,83.68
2023-03-19T11:24:33.218Z,83.49
2023-03-19T11:27:00.393Z,83.07
2023-03-19T11:29:28.830Z,83.62
2023-03-19T11:32:21.016Z,84.16
2023-03-19T11:34:58.919Z,84.14
2023-03-19T11:37:58.054Z,84.19
2023-03-19T11:40:47.045Z,83.80
2023-03-19T11:43:32.405Z,84.38
2023-03-19T11:46:12.825Z,84.38
2023-03-19T11:48:51.513Z,84.79
2023-03-19T11:51:32.734Z,84.40
2023-03-19T11:54:31.646Z,85.25
2023-03-19T11:57:08.369Z,85.47
2023-03-19T11:59:45.605Z,85.19
2023-03-19T12:02:39.543Z,84.98
2023-03-19T12:05:12.007Z,84.95
2023-03-19T12:08:15.670Z,84.94
2023-03-19T12:10:51.637Z,84.74
2023-03-19T12:13:32.061Z,84.97
2023-03-19T12:16:20.297Z,85.20
2023-03-19T12:18:49.639Z,84.23
2023-03-19T12:21:53.346Z,84.66
2023-03-19T12:24:32.903Z,84.54
2023-03-19T12:27:21.392Z,84.48
2023-03-19T12:30:37.866Z,84.97
2023-03-19T12:33:22.373Z,84.38
2023-03-19T12:35:53.597Z,84.55
2023-03-19T12:38:37.345Z,84.44
2023-03-19T12:41:14.917Z,84.04
2023-03-19T12:44:01.988Z,84.20
2023-03-19T12:46:33.884Z,83.68
2023-03-19T12:49:30.561Z,83.87
2023-03-19T12:52:02.182Z,83.97
2023-03-19T12:54:36.113Z,83.51
2023-03-19T12:57:17.016Z,83.32
2023-03-19T12:59:56.521Z,83.93
2023-03-19T13:02:33.171Z,83.55
2023-03-19T13:05:14.814Z,83.71
2023-03-19T13:07:53.851Z,83.53
2023-03-19T13:10:21.934Z,82.38
2023-03-19T13:12:51.164Z,81.89
2023-03-19T13:15:29.009Z,81.23
2023-03-19T13:18:29.630Z,81.35
2023-03-19T13:21:14.341Z,80.96
2023-03-19T13:23:45.480Z,80.87
2023-03-19T13:26:14.298Z,81.33
2023-03-19T13:29:06.863Z,81.36
2023-03-19T13:31:35.664Z,81.20
2023-03-19T13:34:02.983Z,81.79
2023-03-19T13:36:31.320Z,81.78
2023-03-19T13:39:00.707Z,81.13
2023-03-19T13:41:33.397Z,81.22
2023-03-19T13:44:18.472Z,81.10
2023-03-19T13:46:45.276Z,81.56
2023-03-19T13:49:35.889Z,82.12
2023-03-19T13:52:11.727Z,81.75
2023-03-19T13:54:40.592Z,81.83
2023-03-19T13:57:10.023Z,81.74
2023-03-19T13:59:38.561Z,81.74
2023-03-19T14:02:23.044Z,81.29
2023-03-19T14:05:00.722Z,80.80
2023-03-19T14:07:30.509Z,80.89
2023-03-19T14:09:57.481Z,81.48
2023-03-19T14:12:42.206Z,81.19
2023-03-19T14:15:09.160Z,81.33
2023-03-19T14:17:53.940Z,80.49
2023-03-19T14:20:32.871Z,79.24
2023-03-19T14:23:03.660Z,80.15
2023-03-19T14:26:07.992Z,79.32
2023-03-19T14:29:04.815Z,79.78
2023-03-19T14:31:33.988Z,79.93
2023-03-19T14:34:27.279Z,79.78
2023-03-19T14:37:05.146Z,79.72
2023-03-19T14:39:40.600Z,79.53
2023-03-19T14:42:28.335Z,80.08
2023-03-19T14:45:14.426Z,80.44
2023-03-19T14:48:13.507Z,80.09
2023-03-19T14:50:58.519Z,80.11
2023-03-19T14:53:24.866Z,81.12
2023-03-19T14:55:53.200Z,80.82
2023-03-19T14:58:20.895Z,80.01
2023-03-19T15:00:51.115Z,80.74
2023-03-19T15:03:22.798Z,80.44
2023-03-19T15:05:52.593Z,80.36
2023-03-19T15:08:23.386Z,81.03
2023-03-19T15:10:58.708Z,79.80
2023-03-19T15:13:31.496Z,80.11
2023-03-19T15:16:28.143Z,79.67
2023-03-19T15:18:54.765Z,79.83
2023-03-19T15:21:21.562Z,80.22
2023-03-19T15:23:48.785Z,80.25
2023-03-19T15:26:18.489Z,80.56
2023-03-19T15:28:53.727Z,80.45
2023-03-19T15:31:37.529Z,80.69
2023-03-19T15:34:23.010Z,80.92
2023-03-19T15:36:54.327Z,80.39
2023-03-19T15:39:25.602Z,80.99
2023-03-19T15:41:53.557Z,81.31
2023-03-19T15:44:33.904Z,81.12
2023-03-19T15:47:03.700Z,81.00
2023-03-19T15:49:42.371Z,81.98
2023-03-19T15:52:14.728Z,82.35
2023-03-19T15:54:42.179Z,82.77
2023-03-19T15:57:11.559Z,82.23
2023-03-19T15:59:38.367Z,82.18
2023-03-19T16:02:33.385Z,82.56
2023-03-19T16:05:21.098Z,82.57
2023-03-19T16:07:55.156Z,82.77
2023-03-19T16:10:42.799Z,82.60
2023-03-19T16:13:23.420Z,82.32
2023-03-19T16:16:01.012Z,83.21
2023-03-19T16:18:30.391Z,83.10
2023-03-19T16:21:05.929Z,82.41
2023-03-19T16:23:36.550Z,82.49
2023-03-19T16:26:19.118Z,81.86
2023-03-19T16:29:19.608Z,81.46
2023-03-19T16:31:53.042Z,81.17
2023-03-19T16:34:51.950Z,81.91
2023-03-19T16:37:31.398Z,81.76
2023-03-19T16:40:03.478Z,81.70
2023-03-19T16:42:32.565Z,81.89
2023-03-19T16:45:22.889Z,82.05
2023-03-19T16:47:51.578Z,82.45
2023-03-19T16:50:20.474Z,82.52
2023-03-19T16:52:48.896Z,82.10
2023-03-19T16:55:22.264Z,82.56
2023-03-19T16:57:59.309Z,82.87
2023-03-19T17:00:27.396Z,82.84
2023-03-19T17:02:57.772Z,82.67
2023-03-19T17:05:26.793Z,83.27
2023-03-19T17:07:55.755Z,83.22
2023-03-19T17:10:25.192Z,83.53
2023-03-19T17:12:54.311Z,83.41
2023-03-19T17:15:42.178Z,83.76
2023-03-19T17:18:16.512Z,83.24
2023-03-19T17:20:56.830Z,83.52
2023-03-19T17:23:26.862Z,83.98
2023-03-19T17:25:54.313Z,84.24
2023-03-19T17:28:21.408Z,83.34
2023-03-19T17:30:48.266Z,84.42
2023-03-19T17:33:33.023Z,83.96
2023-03-19T17:35:59.569Z,84.31
2023-03-19T17:38:31.962Z,83.60
2023-03-19T17:40:58.484Z,84.02
2023-03-19T17:43:24.926Z,84.47
2023-03-19T17:45:51.483Z,83.90
2023-03-19T17:48:23.928Z,84.53
2023-03-19T17:50:50.685Z,85.05
2023-03-19T17:53:21.063Z,84.86
2023-03-19T17:55:47.543Z,84.22
2023-03-19T17:58:19.597Z,84.16
2023-03-19T18:00:47.844Z,85.78
2023-03-19T18:03:25.256Z,84.96
2023-03-19T18:05:51.935Z,85.82
2023-03-19T18:08:22.236Z,84.94
2023-03-19T18:10:48.639Z,86.07
2023-03-19T18:13:15.188Z,86.33
2023-03-19T18:15:44.973Z,84.71
2023-03-19T18:18:17.941Z,86.30
2023-03-19T18:20:45.092Z,85.70
2023-03-19T18:23:13.169Z,85.70
2023-03-19T18:25:39.897Z,85.97
2023-03-19T18:28:06.321Z,85.95
2023-03-19T18:30:35.647Z,84.69
2023-03-19T18:33:05.363Z,84.89
2023-03-19T18:35:36.913Z,85.82
2023-03-19T18:38:03.958Z,86.72
2023-03-19T18:40:32.664Z,85.48
2023-03-19T18:42:59.450Z,86.45
2023-03-19T18:45:30.527Z,85.80
2023-03-19T18:47:57.235Z,86.11
2023-03-19T18:50:27.132Z,86.07
2023-03-19T18:52:53.922Z,85.15
2023-03-19T18:55:23.202Z,84.79
2023-03-19T18:58:00.212Z,85.13
2023-03-19T19:00:29.644Z,86.25
2023-03-19T19:02:58.032Z,85.12
2023-03-19T19:05:27.764Z,86.26
2023-03-19T19:07:55.924Z,84.38
2023-03-19T19:10:24.245Z,84.66
2023-03-19T19:12:53.387Z,85.65
2023-03-19T19:15:24.323Z,85.72
2023-03-19T19:17:51.978Z,85.26
2023-03-19T19:20:24.797Z,85.57
2023-03-19T19:25:30.089Z,85.51
2023-03-19T19:28:14.495Z,85.03
2023-03-19T19:30:41.050Z,85.79
2023-03-19T19:33:21.966Z,86.52
2023-03-19T19:35:49.034Z,86.11
2023-03-19T19:38:15.970Z,85.95
2023-03-19T19:40:43.758Z,87.18
2023-03-19T19:43:19.977Z,86.66
2023-03-19T19:45:48.466Z,85.94
2023-03-19T19:48:21.215Z,85.60
2023-03-19T19:50:48.791Z,86.48
2023-03-19T19:53:15.565Z,86.27
2023-03-19T19:55:43.675Z,88.09
2023-03-19T19:58:28.153Z,87.51
2023-03-19T20:01:03.489Z,88.01
2023-03-19T20:03:33.063Z,87.87
2023-03-19T20:06:02.230Z,87.40
2023-03-19T20:08:29.069Z,88.11
2023-03-19T20:10:56.545Z,88.39
2023-03-19T20:13:34.599Z,87.98
2023-03-19T20:16:02.174Z,87.96
2023-03-19T20:18:32.221Z,89.65
2023-03-19T20:20:59.685Z,90.03
2023-03-19T20:23:26.630Z,88.61
2023-03-19T20:25:54.799Z,90.48
2023-03-19T20:28:34.201Z,89.55
2023-03-19T20:31:02.698Z,90.84
2023-03-19T20:33:31.261Z,89.52
2023-03-19T20:35:58.676Z,90.69
2023-03-19T20:38:27.143Z,90.94
2023-03-19T20:40:56.339Z,90.88
2023-03-19T20:43:29.600Z,90.79
2023-03-19T20:46:03.036Z,91.22
2023-03-19T20:48:31.716Z,89.54
2023-03-19T20:51:01.054Z,91.03
2023-03-19T20:53:28.380Z,91.31
2023-03-19T20:55:55.305Z,90.70
2023-03-19T20:58:30.062Z,90.48
2023-03-19T21:00:58.559Z,91.02
2023-03-19T21:03:27.843Z,91.36
2023-03-19T21:06:00.021Z,91.19
2023-03-19T21:08:34.161Z,90.66
2023-03-19T21:11:01.236Z,90.05
2023-03-19T21:13:28.368Z,89.46
2023-03-19T21:15:55.025Z,89.66
2023-03-19T21:18:22.101Z,89.25
2023-03-19T21:20:54.621Z,88.11
2023-03-19T21:23:35.303Z,88.93
2023-03-19T21:26:18.258Z,88.22
2023-03-19T21:28:47.484Z,88.65
2023-03-19T21:31:20.402Z,88.85
2023-03-19T21:33:51.588Z,87.94
2023-03-19T21:36:19.115Z,87.82
2023-03-19T21:38:46.015Z,89.39
2023-03-19T21:41:35.856Z,89.30
2023-03-19T21:44:18.533Z,87.38
2023-03-19T21:46:47.732Z,88.06
2023-03-19T21:49:14.856Z,88.16
2023-03-19T21:51:43.668Z,89.78
2023-03-19T21:54:11.262Z,88.18
2023-03-19T21:56:40.648Z,88.49
2023-03-19T21:59:13.416Z,88.72
2023-03-19T22:01:40.550Z,87.58
2023-03-19T22:04:07.055Z,87.23
2023-03-19T22:06:33.845Z,87.36
2023-03-19T22:09:00.375Z,87.69
2023-03-19T22:11:28.260Z,86.68
2023-03-19T22:14:05.279Z,86.27
2023-03-19T22:16:32.355Z,88.09
2023-03-19T22:18:59.047Z,88.33
2023-03-19T22:21:25.672Z,87.34
2023-03-19T22:23:52.329Z,86.71
2023-03-19T22:26:30.918Z,87.40
2023-03-19T22:29:00.658Z,86.71
2023-03-19T22:31:27.944Z,86.77
2023-03-19T22:33:54.797Z,85.44
2023-03-19T22:36:21.310Z,86.53
2023-03-19T22:38:48.862Z,86.60
2023-03-19T22:41:36.786Z,86.97
2023-03-19T22:44:06.663Z,85.21
2023-03-19T22:46:33.422Z,86.30
2023-03-19T22:48:59.851Z,86.87
2023-03-19T22:51:27.646Z,86.13
2023-03-19T22:53:54.810Z,86.35
2023-03-19T22:56:22.361Z,86.73
2023-03-19T22:58:49.610Z,86.81
2023-03-19T23:01:20.584Z,86.97
2023-03-19T23:03:48.814Z,86.85
2023-03-19T23:06:29.175Z,87.60
2023-03-19T23:08:56.966Z,87.28
2023-03-19T23:11:24.195Z,88.01
2023-03-19T23:13:50.640Z,87.01
2023-03-19T23:16:23.305Z,87.36
2023-03-19T23:18:51.329Z,85.99
2023-03-19T23:21:19.260Z,86.46
2023-03-19T23:23:46.155Z,85.33
2023-03-19T23:26:31.347Z,86.50
2023-03-19T23:29:03.546Z,86.84
2023-03-19T23:31:30.249Z,86.71
2023-03-19T23:33:56.667Z,86.89
2023-03-19T23:36:23.132Z,86.60
2023-03-19T23:38:49.563Z,85.40
2023-03-19T23:41:26.415Z,85.51
2023-03-19T23:43:53.386Z,85.21
2023-03-19T23:46:20.217Z,85.77
2023-03-19T23:48:47.069Z,85.96
2023-03-19T23:51:14.710Z,84.94
2023-03-19T23:53:42.333Z,84.32
2023-03-19T23:56:19.931Z,84.71
2023-03-19T23:58:48.705Z,84.77
